Yogi — DJ5464 — position and weather

sailwx.info

Track history (hours):
 
Tides and Currents Weather Stations Pressure Air Temp Water Temp Dewpoint Dewpoint Depression Visibility Wind Speed Wind Dir Waves Ship Positions

Yogi

Last reported at 2014-Oct-05 17:13 UTC. Time now 2014-Nov-23 12:18 UTC.
Position N 54°19' E 013°07'.
Warning: this ship's position is 48 days out of date.

Length 11 m.

Type: Sailing vessel. MMSI: 211330220.

Date/timePositionNaut miles runAvg speedWind from/ knotsBaromVisibWave heightAir tempDewpointWater temp
2014-Oct-05 17:13N 54°19' E 013°07'0 0.0
2014-Oct-05 16:32N 54°19' E 013°07'0 0.0
2014-Oct-05 14:04N 54°19' E 013°07'0 0.0
2014-Oct-04 18:10N 54°19' E 013°07'0 0.0
2014-Oct-04 17:31N 54°19' E 013°07'9 0.3
2014-Oct-03 08:10N 54°28' E 013°04'3 4.9
2014-Oct-03 07:33N 54°25' E 013°04'6 6.0
2014-Oct-03 06:33N 54°19' E 013°06'  
2014-Sep-28 15:33N 54°19' E 013°07'0 0.0
2014-Sep-28 14:33N 54°19' E 013°07'0 0.0
2014-Sep-28 13:33N 54°19' E 013°07'0 0.0
2014-Sep-28 12:33N 54°19' E 013°07'0 0.0
2014-Sep-28 11:33N 54°19' E 013°07'5 4.2
2014-Sep-28 10:17N 54°24' E 013°06'5 0.2
2014-Sep-27 12:25N 54°29' E 013°07'5 6.0
2014-Sep-27 11:33N 54°24' E 013°06'8 3.9
2014-Sep-27 09:33N 54°24' E 012°53'  
Track history (hours):
 
Tides and Currents Weather Stations Pressure Air Temp Water Temp Dewpoint Dewpoint Depression Visibility Wind Speed Wind Dir Waves Ship Positions

Yogi

Last reported at 2014-Oct-05 17:13 UTC. Time now 2014-Nov-23 12:18 UTC.
Position N 54°19' E 013°07'.
Warning: this ship's position is 48 days out of date.

Length 11 m.

Type: Sailing vessel. MMSI: 211330220.

Date/timePositionNaut miles runAvg speedWind from/ knotsBaromVisibWave heightAir tempDewpointWater temp
2014-Oct-05 17:13N 54°19' E 013°07'0 0.0
2014-Oct-05 16:32N 54°19' E 013°07'0 0.0
2014-Oct-05 14:04N 54°19' E 013°07'0 0.0
2014-Oct-04 18:10N 54°19' E 013°07'0 0.0
2014-Oct-04 17:31N 54°19' E 013°07'9 0.3
2014-Oct-03 08:10N 54°28' E 013°04'3 4.9
2014-Oct-03 07:33N 54°25' E 013°04'6 6.0
2014-Oct-03 06:33N 54°19' E 013°06'  
2014-Sep-28 15:33N 54°19' E 013°07'0 0.0
2014-Sep-28 14:33N 54°19' E 013°07'0 0.0
2014-Sep-28 13:33N 54°19' E 013°07'0 0.0
2014-Sep-28 12:33N 54°19' E 013°07'0 0.0
2014-Sep-28 11:33N 54°19' E 013°07'5 4.2
2014-Sep-28 10:17N 54°24' E 013°06'5 0.2
2014-Sep-27 12:25N 54°29' E 013°07'5 6.0
2014-Sep-27 11:33N 54°24' E 013°06'8 3.9
2014-Sep-27 09:33N 54°24' E 012°53'  

Dump ship's entire track history